createdAt,value
2019-05-11T00:01:47.759Z,15.80
2019-05-11T00:04:15.698Z,16.00
2019-05-11T00:10:11.724Z,15.97
2019-05-11T00:12:39.620Z,15.63
2019-05-11T00:15:08.471Z,16.93
2019-05-11T00:21:03.904Z,17.03
2019-05-11T00:23:34.501Z,16.93
2019-05-11T00:29:30.340Z,17.50
2019-05-11T00:31:58.088Z,17.87
2019-05-11T00:34:25.969Z,18.37
2019-05-11T00:40:22.951Z,18.23
2019-05-11T00:42:53.793Z,18.63
2019-05-11T00:45:21.465Z,19.07
2019-05-11T00:51:18.399Z,17.27
2019-05-11T00:53:46.083Z,18.17
2019-05-11T00:59:41.395Z,18.20
2019-05-11T01:02:11.331Z,19.90
2019-05-11T01:04:39.110Z,18.97
2019-05-11T01:10:29.042Z,18.63
2019-05-11T01:12:52.819Z,18.77
2019-05-11T01:15:20.769Z,19.97
2019-05-11T01:21:28.128Z,19.23
2019-05-11T01:23:55.962Z,19.47
2019-05-11T01:29:51.840Z,20.13
2019-05-11T01:32:19.513Z,19.47
2019-05-11T01:34:47.262Z,19.97
2019-05-11T01:40:57.615Z,19.87
2019-05-11T01:43:12.214Z,19.60
2019-05-11T01:45:40.971Z,18.50
2019-05-11T01:48:08.643Z,19.47
2019-05-11T01:50:36.313Z,20.27
2019-05-11T01:53:04.095Z,19.17
2019-05-11T01:55:31.887Z,18.87
2019-05-11T02:01:28.268Z,18.93
2019-05-11T02:03:56.063Z,17.07
2019-05-11T02:09:51.679Z,17.57
2019-05-11T02:12:19.345Z,17.37
2019-05-11T02:14:47.031Z,16.37
2019-05-11T02:20:54.574Z,16.20
2019-05-11T02:23:22.310Z,16.17
2019-05-11T02:25:50.076Z,16.63
2019-05-11T02:28:17.781Z,17.17
2019-05-11T02:30:45.618Z,16.43
2019-05-11T02:33:35.375Z,16.27
2019-05-11T02:39:30.828Z,15.93
2019-05-11T02:41:58.584Z,15.87
2019-05-11T02:44:26.299Z,16.77
2019-05-11T02:50:22.305Z,16.43
2019-05-11T02:52:50.285Z,16.63
2019-05-11T02:55:18.371Z,16.23
2019-05-11T03:01:13.340Z,15.93
2019-05-11T03:03:41.868Z,17.37
2019-05-11T03:06:09.760Z,16.27
2019-05-11T03:08:37.511Z,16.77
2019-05-11T03:11:05.235Z,15.73
2019-05-11T03:13:32.905Z,16.33
2019-05-11T03:19:41.763Z,15.80
2019-05-11T03:22:09.441Z,16.00
2019-05-11T03:24:37.171Z,15.93
2019-05-11T03:30:32.517Z,16.53
2019-05-11T03:33:00.303Z,16.90
2019-05-11T03:35:29.563Z,16.50
2019-05-11T03:41:25.002Z,16.10
2019-05-11T03:43:52.727Z,16.33
2019-05-11T03:49:48.343Z,15.30
2019-05-11T03:52:16.277Z,16.07
2019-05-11T03:54:44.010Z,15.63
2019-05-11T04:00:51.488Z,16.13
2019-05-11T04:03:19.242Z,15.67
2019-05-11T04:05:46.978Z,15.63
2019-05-11T04:08:14.726Z,16.17
2019-05-11T04:10:42.444Z,16.70
2019-05-11T04:13:10.169Z,17.00
2019-05-11T04:15:37.849Z,17.83
2019-05-11T04:18:05.457Z,16.60
2019-05-11T04:20:33.425Z,17.80
2019-05-11T04:23:01.087Z,16.97
2019-05-11T04:25:28.783Z,18.63
2019-05-11T04:31:36.798Z,18.53
2019-05-11T04:34:04.563Z,19.03
2019-05-11T04:40:01.266Z,20.33
2019-05-11T04:42:29.098Z,20.23
2019-05-11T04:44:56.855Z,21.47
2019-05-11T04:50:51.916Z,21.00
2019-05-11T04:53:19.615Z,22.60
2019-05-11T04:59:16.062Z,22.50
2019-05-11T05:01:47.194Z,23.97
2019-05-11T05:04:14.988Z,24.13
2019-05-11T05:10:14.004Z,26.27
2019-05-11T05:12:50.382Z,27.60
2019-05-11T05:15:12.057Z,27.97
2019-05-11T05:21:07.257Z,28.63
2019-05-11T05:23:35.101Z,29.47
2019-05-11T05:29:44.981Z,29.37
2019-05-11T05:32:19.280Z,31.97
2019-05-11T05:34:47.261Z,30.87
2019-05-11T05:40:43.369Z,30.93
2019-05-11T05:43:25.642Z,33.80
2019-05-11T05:45:41.609Z,32.37
2019-05-11T05:48:11.380Z,34.07
2019-05-11T05:50:39.105Z,32.43
2019-05-11T05:53:06.931Z,34.43
2019-05-11T05:55:34.608Z,33.97
2019-05-11T06:01:30.273Z,34.53
2019-05-11T06:03:57.965Z,35.50
2019-05-11T06:06:58.845Z,36.33
2019-05-11T06:09:26.447Z,36.20
2019-05-11T06:11:54.075Z,35.43
2019-05-11T06:14:21.792Z,38.60
2019-05-11T06:20:29.214Z,35.73
2019-05-11T06:22:56.795Z,36.77
2019-05-11T06:25:27.451Z,35.63
2019-05-11T06:31:22.833Z,37.23
2019-05-11T06:33:55.596Z,37.37
2019-05-11T06:40:03.897Z,36.13
2019-05-11T06:42:32.414Z,35.30
2019-05-11T06:45:00.165Z,36.07
2019-05-11T06:51:10.393Z,34.30
2019-05-11T06:53:37.976Z,34.83
2019-05-11T06:56:18.048Z,34.40
2019-05-11T06:58:45.734Z,32.23
2019-05-11T07:01:15.424Z,34.43
2019-05-11T07:03:43.143Z,33.57
2019-05-11T07:06:47.418Z,32.23
2019-05-11T07:09:15.042Z,32.37
2019-05-11T07:11:42.611Z,32.53
2019-05-11T07:14:19.821Z,33.20
2019-05-11T07:17:30.975Z,32.37
2019-05-11T07:20:02.778Z,33.27
2019-05-11T07:22:30.371Z,29.70
2019-05-11T07:24:58.082Z,30.97
2019-05-11T07:27:51.881Z,29.40
2019-05-11T07:30:21.621Z,28.03
2019-05-11T07:32:49.221Z,28.67
2019-05-11T07:35:18.812Z,27.77
2019-05-11T07:38:41.878Z,26.97
2019-05-11T07:41:09.487Z,25.17
2019-05-11T07:43:38.169Z,24.27
2019-05-11T07:46:33.854Z,23.97
2019-05-11T07:49:01.424Z,23.40
2019-05-11T07:51:29.010Z,22.57
2019-05-11T07:53:57.845Z,22.50
2019-05-11T07:56:28.660Z,21.07
2019-05-11T07:58:58.020Z,20.40
2019-05-11T08:01:28.057Z,20.27
2019-05-11T08:03:55.230Z,19.83
2019-05-11T08:06:41.862Z,19.77
2019-05-11T08:09:09.427Z,19.87
2019-05-11T08:11:38.854Z,19.57
2019-05-11T08:14:07.781Z,19.93
2019-05-11T08:16:39.039Z,18.40
2019-05-11T08:19:10.338Z,18.50
2019-05-11T08:21:38.669Z,19.47
2019-05-11T08:24:08.950Z,17.60
2019-05-11T08:26:38.024Z,16.17
2019-05-11T08:29:07.944Z,16.73
2019-05-11T08:31:35.106Z,15.30
2019-05-11T08:34:02.779Z,14.27
2019-05-11T08:36:30.424Z,14.87
2019-05-11T08:38:58.712Z,13.73
2019-05-11T08:41:27.982Z,12.93
2019-05-11T08:43:55.727Z,13.73
2019-05-11T08:46:35.186Z,13.10
2019-05-11T08:49:02.819Z,14.03
2019-05-11T08:51:30.415Z,14.00
2019-05-11T08:53:58.423Z,13.10
2019-05-11T08:56:30.072Z,12.90
2019-05-11T08:58:58.884Z,12.37
2019-05-11T09:01:28.537Z,11.93
2019-05-11T09:03:58.113Z,12.10
2019-05-11T09:06:25.350Z,11.13
2019-05-11T09:08:52.917Z,10.77
2019-05-11T09:11:20.535Z,10.47
2019-05-11T09:13:48.876Z,10.00
2019-05-11T09:16:28.885Z,10.83
2019-05-11T09:18:57.970Z,10.13
2019-05-11T09:21:24.973Z,9.80
2019-05-11T09:23:52.539Z,10.47
2019-05-11T09:26:25.443Z,10.33
2019-05-11T09:28:53.066Z,10.43
2019-05-11T09:31:20.636Z,10.20
2019-05-11T09:33:48.261Z,10.17
2019-05-11T09:36:21.639Z,9.60
2019-05-11T09:38:49.229Z,10.13
2019-05-11T09:41:18.288Z,9.43
2019-05-11T09:43:48.117Z,9.13
2019-05-11T09:46:33.860Z,8.97
2019-05-11T09:49:01.405Z,8.47
2019-05-11T09:51:31.180Z,7.80
2019-05-11T09:53:58.912Z,7.77
2019-05-11T09:56:48.658Z,9.17
2019-05-11T09:59:28.133Z,7.17
2019-05-11T10:01:55.497Z,7.13
2019-05-11T10:04:24.319Z,8.00
2019-05-11T10:07:09.293Z,8.00
2019-05-11T10:09:39.234Z,7.27
2019-05-11T10:12:34.209Z,7.63
2019-05-11T10:15:04.853Z,8.53
2019-05-11T10:18:13.829Z,7.60
2019-05-11T10:20:41.517Z,7.67
2019-05-11T10:23:09.143Z,7.40
2019-05-11T10:25:38.808Z,6.80
2019-05-11T10:28:08.511Z,7.43
2019-05-11T10:30:35.648Z,7.37
2019-05-11T10:33:03.279Z,7.80
2019-05-11T10:35:30.937Z,7.60
2019-05-11T10:38:03.966Z,7.27
2019-05-11T10:40:31.536Z,6.87
2019-05-11T10:42:59.241Z,6.50
2019-05-11T10:45:28.551Z,6.40
2019-05-11T10:48:35.521Z,6.20
2019-05-11T10:51:05.495Z,6.13
2019-05-11T10:53:33.167Z,6.00
2019-05-11T10:56:23.345Z,6.97
2019-05-11T10:58:51.025Z,6.07
2019-05-11T11:01:19.044Z,5.60
2019-05-11T11:03:48.326Z,6.00
2019-05-11T11:06:39.116Z,5.97
2019-05-11T11:09:10.125Z,5.67
2019-05-11T11:11:38.351Z,6.33
2019-05-11T11:14:08.380Z,5.63
2019-05-11T11:16:52.994Z,5.50
2019-05-11T11:19:20.676Z,5.27
2019-05-11T11:21:49.184Z,5.93
2019-05-11T11:24:18.023Z,6.03
2019-05-11T11:30:28.547Z,6.13
2019-05-11T11:32:58.779Z,5.53
2019-05-11T11:35:27.927Z,5.87
2019-05-11T11:41:29.904Z,5.30
2019-05-11T11:43:59.109Z,5.77
2019-05-11T11:46:32.836Z,5.57
2019-05-11T11:49:08.257Z,5.40
2019-05-11T11:51:37.823Z,5.80
2019-05-11T11:54:05.732Z,4.87
2019-05-11T12:00:13.205Z,5.10
2019-05-11T12:02:42.202Z,4.67
2019-05-11T12:05:11.401Z,4.37
2019-05-11T12:07:51.756Z,4.50
2019-05-11T12:10:19.802Z,3.77
2019-05-11T12:12:47.633Z,3.57
2019-05-11T12:15:17.626Z,2.97
2019-05-11T12:18:54.396Z,2.80
2019-05-11T12:21:22.023Z,2.83
2019-05-11T12:23:49.742Z,3.33
2019-05-11T12:26:28.414Z,2.77
2019-05-11T12:28:58.162Z,3.03
2019-05-11T12:31:28.572Z,3.03
2019-05-11T12:33:58.452Z,2.23
2019-05-11T12:39:53.158Z,3.07
2019-05-11T12:42:21.367Z,2.77
2019-05-11T12:44:49.433Z,2.60
2019-05-11T12:50:33.077Z,2.47
2019-05-11T12:53:03.344Z,3.27
2019-05-11T12:55:31.685Z,3.27
2019-05-11T13:01:39.457Z,3.20
2019-05-11T13:04:14.681Z,2.70
2019-05-11T13:10:14.248Z,2.10
2019-05-11T13:12:42.284Z,2.60
2019-05-11T13:15:10.511Z,2.97
2019-05-11T13:21:20.865Z,3.33
2019-05-11T13:23:49.104Z,3.13
2019-05-11T13:29:45.113Z,2.73
2019-05-11T13:32:13.353Z,3.00
2019-05-11T13:34:41.595Z,2.77
2019-05-11T13:40:43.213Z,2.73
2019-05-11T13:43:11.972Z,2.80
2019-05-11T13:45:39.987Z,2.60
2019-05-11T13:48:10.882Z,3.00
2019-05-11T13:50:38.812Z,2.90
2019-05-11T13:53:07.743Z,3.20
2019-05-11T13:55:35.792Z,3.03
2019-05-11T14:01:43.832Z,2.97
2019-05-11T14:04:17.895Z,2.53
2019-05-11T14:10:11.986Z,3.00
2019-05-11T14:12:40.923Z,2.73
2019-05-11T14:15:18.810Z,3.20
2019-05-11T14:21:27.980Z,3.60
2019-05-11T14:24:07.584Z,3.83
2019-05-11T14:29:59.260Z,3.40
2019-05-11T14:32:28.474Z,3.17
2019-05-11T14:34:57.791Z,3.10
2019-05-11T14:40:53.604Z,3.50
2019-05-11T14:43:22.634Z,3.10
2019-05-11T14:49:18.591Z,2.73
2019-05-11T14:51:48.486Z,3.10
2019-05-11T14:54:18.553Z,3.30
2019-05-11T15:00:18.973Z,3.17
2019-05-11T15:02:52.733Z,3.43
2019-05-11T15:05:20.994Z,2.90
2019-05-11T15:11:18.909Z,3.40
2019-05-11T15:13:48.885Z,3.00
2019-05-11T15:16:29.833Z,2.90
2019-05-11T15:18:58.566Z,3.30
2019-05-11T15:21:28.095Z,3.27
2019-05-11T15:23:57.960Z,2.67
2019-05-11T15:26:27.751Z,2.90
2019-05-11T15:28:55.515Z,3.17
2019-05-11T15:32:02.842Z,3.10
2019-05-11T15:34:38.168Z,3.57
2019-05-11T15:37:13.674Z,2.90
2019-05-11T15:39:41.811Z,2.80
2019-05-11T15:42:16.915Z,3.13
2019-05-11T15:44:44.524Z,3.00
2019-05-11T15:50:19.084Z,3.10
2019-05-11T15:52:49.824Z,2.73
2019-05-11T15:55:18.825Z,3.20
2019-05-11T15:57:58.943Z,3.53
2019-05-11T16:00:26.566Z,3.57
2019-05-11T16:02:54.164Z,3.90
2019-05-11T16:05:21.919Z,3.23
2019-05-11T16:08:09.095Z,3.40
2019-05-11T16:10:38.392Z,3.63
2019-05-11T16:13:06.202Z,3.17
2019-05-11T16:15:35.541Z,3.80
2019-05-11T16:21:31.948Z,3.33
2019-05-11T16:23:59.817Z,3.50
2019-05-11T16:30:09.123Z,3.60
2019-05-11T16:32:38.607Z,2.93
2019-05-11T16:35:08.795Z,3.57
2019-05-11T16:41:05.018Z,3.03
2019-05-11T16:43:32.763Z,3.20
2019-05-11T16:46:50.467Z,2.73
2019-05-11T16:49:26.100Z,2.80
2019-05-11T16:51:47.974Z,2.83
2019-05-11T16:54:15.985Z,2.67
2019-05-11T16:57:51.732Z,2.67
2019-05-11T17:00:19.646Z,2.87
2019-05-11T17:02:48.951Z,2.73
2019-05-11T17:05:26.058Z,3.10
2019-05-11T17:07:54.151Z,2.80
2019-05-11T17:10:21.777Z,2.90
2019-05-11T17:12:49.625Z,3.87
2019-05-11T17:15:18.475Z,3.50
2019-05-11T17:18:35.628Z,3.43
2019-05-11T17:21:07.606Z,3.33
2019-05-11T17:23:35.257Z,3.13
2019-05-11T17:29:30.201Z,3.27
2019-05-11T17:31:58.099Z,3.47
2019-05-11T17:34:25.801Z,2.60
2019-05-11T17:40:33.673Z,3.17
2019-05-11T17:43:01.331Z,3.10
2019-05-11T17:45:30.298Z,3.10
2019-05-11T17:51:21.258Z,3.37
2019-05-11T17:53:48.084Z,2.70
2019-05-11T17:59:43.782Z,3.00
2019-05-11T18:02:11.497Z,3.07
2019-05-11T18:04:39.418Z,2.70
2019-05-11T18:07:30.916Z,2.93
2019-05-11T18:09:58.722Z,2.90
2019-05-11T18:12:28.565Z,2.77
2019-05-11T18:14:58.486Z,2.97
2019-05-11T18:17:50.579Z,3.07
2019-05-11T18:20:21.818Z,3.10
2019-05-11T18:22:49.114Z,3.00
2019-05-11T18:25:18.195Z,2.50
2019-05-11T18:28:03.758Z,3.07
2019-05-11T18:30:31.446Z,2.40
2019-05-11T18:33:08.290Z,2.60
2019-05-11T18:35:36.097Z,2.40
2019-05-11T18:38:05.344Z,2.90
2019-05-11T18:40:33.020Z,2.27
2019-05-11T18:43:00.684Z,2.77
2019-05-11T18:45:28.792Z,2.63
2019-05-11T18:47:56.581Z,2.20
2019-05-11T18:50:31.017Z,2.37
2019-05-11T18:52:54.702Z,2.50
2019-05-11T18:55:22.383Z,2.47
2019-05-11T18:58:29.249Z,2.60
2019-05-11T19:00:57.505Z,2.47
2019-05-11T19:04:20.187Z,2.63
2019-05-11T19:10:08.598Z,2.53
2019-05-11T19:12:37.649Z,2.70
2019-05-11T19:15:07.730Z,2.40
2019-05-11T19:17:35.168Z,2.10
2019-05-11T19:20:02.969Z,2.60
2019-05-11T19:22:30.512Z,2.30
2019-05-11T19:24:58.354Z,2.20
2019-05-11T19:27:25.889Z,2.40
2019-05-11T19:29:53.368Z,2.63
2019-05-11T19:32:20.950Z,2.60
2019-05-11T19:34:48.524Z,3.00
2019-05-11T19:37:18.770Z,2.60
2019-05-11T19:39:48.517Z,2.60
2019-05-11T19:42:17.810Z,2.70
2019-05-11T19:44:45.014Z,2.73
2019-05-11T19:47:12.538Z,2.50
2019-05-11T19:49:40.129Z,3.13
2019-05-11T19:52:08.638Z,2.93
2019-05-11T19:54:38.224Z,3.27
2019-05-11T19:57:08.208Z,3.23
2019-05-11T19:59:35.072Z,3.40
2019-05-11T20:02:02.661Z,3.00
2019-05-11T20:04:30.236Z,3.23
2019-05-11T20:06:58.279Z,2.60
2019-05-11T20:09:28.148Z,2.57
2019-05-11T20:11:55.220Z,2.63
2019-05-11T20:14:22.871Z,1.93
2019-05-11T20:16:50.492Z,2.30
2019-05-11T20:19:18.728Z,2.53
2019-05-11T20:21:48.425Z,2.57
2019-05-11T20:24:15.727Z,2.10
2019-05-11T20:26:56.354Z,2.70
2019-05-11T20:29:23.907Z,2.67
2019-05-11T20:31:51.453Z,2.47
2019-05-11T20:34:18.915Z,2.47
2019-05-11T20:36:50.624Z,2.73
2019-05-11T20:39:18.168Z,2.90
2019-05-11T20:41:47.642Z,3.43
2019-05-11T20:44:15.040Z,2.60
2019-05-11T20:46:42.659Z,2.53
2019-05-11T20:49:10.137Z,3.00
2019-05-11T20:51:37.571Z,2.50
2019-05-11T20:54:05.146Z,2.27
2019-05-11T20:57:05.973Z,2.80
2019-05-11T20:59:33.580Z,2.10
2019-05-11T21:02:01.042Z,2.60
2019-05-11T21:04:28.632Z,2.70
2019-05-11T21:06:59.244Z,2.63
2019-05-11T21:09:28.782Z,2.90
2019-05-11T21:11:58.628Z,2.40
2019-05-11T21:14:25.502Z,2.70
2019-05-11T21:17:00.379Z,3.10
2019-05-11T21:19:28.470Z,2.70
2019-05-11T21:21:58.763Z,3.37
2019-05-11T21:24:25.384Z,3.23
2019-05-11T21:26:54.033Z,3.13
2019-05-11T21:29:21.573Z,2.70
2019-05-11T21:31:49.101Z,2.80
2019-05-11T21:34:18.151Z,3.00
2019-05-11T21:36:50.419Z,2.60
2019-05-11T21:39:17.903Z,2.80
2019-05-11T21:41:47.698Z,2.97
2019-05-11T21:44:14.738Z,3.10
2019-05-11T21:46:50.524Z,2.80
2019-05-11T21:49:18.569Z,2.97
2019-05-11T21:51:48.096Z,2.67
2019-05-11T21:54:15.495Z,3.20
2019-05-11T21:56:42.972Z,2.73
2019-05-11T21:59:10.538Z,2.60
2019-05-11T22:01:38.585Z,2.90
2019-05-11T22:04:08.419Z,2.80
2019-05-11T22:06:35.480Z,3.17
2019-05-11T22:09:04.838Z,2.83
2019-05-11T22:11:32.360Z,2.67
2019-05-11T22:13:59.902Z,3.03
2019-05-11T22:16:29.854Z,2.60
2019-05-11T22:18:57.976Z,2.40
2019-05-11T22:21:27.937Z,2.70
2019-05-11T22:23:55.271Z,2.87
2019-05-11T22:26:22.680Z,2.80
2019-05-11T22:28:50.111Z,2.60
2019-05-11T22:31:18.197Z,2.93
2019-05-11T22:33:47.917Z,2.83
2019-05-11T22:36:15.294Z,2.77
2019-05-11T22:38:42.818Z,2.50
2019-05-11T22:41:10.356Z,2.67
2019-05-11T22:43:37.955Z,2.87
2019-05-11T22:46:05.582Z,2.80
2019-05-11T22:48:33.164Z,2.70
2019-05-11T22:51:00.616Z,2.57
2019-05-11T22:53:42.962Z,2.77
2019-05-11T22:55:58.508Z,2.70
2019-05-11T22:58:26.031Z,3.27
2019-05-11T23:00:53.568Z,3.00
2019-05-11T23:03:22.886Z,3.20
2019-05-11T23:05:50.434Z,3.00
2019-05-11T23:08:18.270Z,2.80
2019-05-11T23:10:47.800Z,3.43
2019-05-11T23:13:15.153Z,3.43
2019-05-11T23:15:42.762Z,3.30
2019-05-11T23:18:10.270Z,3.10
2019-05-11T23:20:38.639Z,3.30
2019-05-11T23:23:08.473Z,3.20
2019-05-11T23:25:35.823Z,3.07
2019-05-11T23:28:03.226Z,3.27
2019-05-11T23:30:30.683Z,3.37
2019-05-11T23:32:58.708Z,3.23
2019-05-11T23:35:28.437Z,2.97
2019-05-11T23:37:57.967Z,3.27
2019-05-11T23:40:25.101Z,3.50
2019-05-11T23:42:52.994Z,3.53
2019-05-11T23:45:20.551Z,3.60
2019-05-11T23:47:51.736Z,3.70
2019-05-11T23:50:18.968Z,3.63
2019-05-11T23:52:50.187Z,3.67
2019-05-11T23:55:18.671Z,4.07
2019-05-11T23:57:45.447Z,3.60
